sensor_id;sensor_type;location;lat;lon;timestamp;P1;durP1;ratioP1;P2;durP2;ratioP2
3700;SDS011;1866;48.374;10.766;2022-07-17T00:00:42;99.40;;;5.50;;
3700;SDS011;1866;48.374;10.766;2022-07-17T00:03:09;102.03;;;5.90;;
3700;SDS011;1866;48.374;10.766;2022-07-17T00:05:40;101.30;;;5.80;;
3700;SDS011;1866;48.374;10.766;2022-07-17T00:08:08;99.00;;;5.67;;
3700;SDS011;1866;48.374;10.766;2022-07-17T00:10:39;99.23;;;5.30;;
3700;SDS011;1866;48.374;10.766;2022-07-17T00:13:07;100.70;;;6.20;;
3700;SDS011;1866;48.374;10.766;2022-07-17T00:15:35;102.27;;;6.70;;
3700;SDS011;1866;48.374;10.766;2022-07-17T00:18:03;103.57;;;6.20;;
3700;SDS011;1866;48.374;10.766;2022-07-17T00:20:31;100.33;;;5.90;;
3700;SDS011;1866;48.374;10.766;2022-07-17T00:23:02;100.57;;;5.97;;
3700;SDS011;1866;48.374;10.766;2022-07-17T00:25:29;100.37;;;6.10;;
3700;SDS011;1866;48.374;10.766;2022-07-17T00:27:57;100.57;;;6.10;;
3700;SDS011;1866;48.374;10.766;2022-07-17T00:33:09;100.80;;;6.90;;
3700;SDS011;1866;48.374;10.766;2022-07-17T00:35:36;100.20;;;5.93;;
3700;SDS011;1866;48.374;10.766;2022-07-17T00:38:05;100.87;;;6.50;;
3700;SDS011;1866;48.374;10.766;2022-07-17T00:40:35;102.33;;;6.40;;
3700;SDS011;1866;48.374;10.766;2022-07-17T00:43:03;99.67;;;6.13;;
3700;SDS011;1866;48.374;10.766;2022-07-17T00:45:31;99.70;;;5.53;;
3700;SDS011;1866;48.374;10.766;2022-07-17T00:47:58;101.47;;;6.07;;
3700;SDS011;1866;48.374;10.766;2022-07-17T00:50:27;99.77;;;5.70;;
3700;SDS011;1866;48.374;10.766;2022-07-17T00:52:56;103.20;;;7.30;;
3700;SDS011;1866;48.374;10.766;2022-07-17T00:55:24;101.27;;;6.30;;
3700;SDS011;1866;48.374;10.766;2022-07-17T00:57:52;100.47;;;5.97;;
3700;SDS011;1866;48.374;10.766;2022-07-17T01:00:26;99.77;;;5.90;;
3700;SDS011;1866;48.374;10.766;2022-07-17T01:03:18;101.20;;;6.57;;
3700;SDS011;1866;48.374;10.766;2022-07-17T01:05:46;102.27;;;6.90;;
3700;SDS011;1866;48.374;10.766;2022-07-17T01:08:13;101.10;;;6.23;;
3700;SDS011;1866;48.374;10.766;2022-07-17T01:10:42;101.67;;;6.20;;
3700;SDS011;1866;48.374;10.766;2022-07-17T01:13:09;104.00;;;6.37;;
3700;SDS011;1866;48.374;10.766;2022-07-17T01:15:36;100.97;;;6.27;;
3700;SDS011;1866;48.374;10.766;2022-07-17T01:18:05;101.47;;;6.20;;
3700;SDS011;1866;48.374;10.766;2022-07-17T01:20:34;101.27;;;6.70;;
3700;SDS011;1866;48.374;10.766;2022-07-17T01:23:03;102.87;;;6.40;;
3700;SDS011;1866;48.374;10.766;2022-07-17T01:25:32;99.97;;;6.10;;
3700;SDS011;1866;48.374;10.766;2022-07-17T01:28:00;100.60;;;6.37;;
3700;SDS011;1866;48.374;10.766;2022-07-17T01:30:27;99.80;;;5.83;;
3700;SDS011;1866;48.374;10.766;2022-07-17T01:32:56;101.80;;;6.47;;
3700;SDS011;1866;48.374;10.766;2022-07-17T01:35:25;100.20;;;5.60;;
3700;SDS011;1866;48.374;10.766;2022-07-17T01:40:54;108.83;;;6.30;;
3700;SDS011;1866;48.374;10.766;2022-07-17T01:43:21;100.17;;;6.20;;
3700;SDS011;1866;48.374;10.766;2022-07-17T01:45:48;100.63;;;6.20;;
3700;SDS011;1866;48.374;10.766;2022-07-17T01:48:22;99.80;;;5.60;;
3700;SDS011;1866;48.374;10.766;2022-07-17T01:50:52;101.80;;;6.13;;
3700;SDS011;1866;48.374;10.766;2022-07-17T01:53:19;100.23;;;6.00;;
3700;SDS011;1866;48.374;10.766;2022-07-17T01:55:46;106.27;;;7.80;;
3700;SDS011;1866;48.374;10.766;2022-07-17T01:58:15;101.50;;;6.17;;
3700;SDS011;1866;48.374;10.766;2022-07-17T02:00:42;100.47;;;6.23;;
3700;SDS011;1866;48.374;10.766;2022-07-17T02:03:10;100.70;;;6.27;;
3700;SDS011;1866;48.374;10.766;2022-07-17T02:05:37;101.97;;;7.10;;
3700;SDS011;1866;48.374;10.766;2022-07-17T02:08:04;101.00;;;6.00;;
3700;SDS011;1866;48.374;10.766;2022-07-17T02:10:31;102.97;;;6.30;;
3700;SDS011;1866;48.374;10.766;2022-07-17T02:12:58;102.50;;;6.23;;
3700;SDS011;1866;48.374;10.766;2022-07-17T02:15:27;100.37;;;6.27;;
3700;SDS011;1866;48.374;10.766;2022-07-17T02:17:54;104.40;;;6.10;;
3700;SDS011;1866;48.374;10.766;2022-07-17T02:20:21;101.00;;;6.40;;
3700;SDS011;1866;48.374;10.766;2022-07-17T02:22:50;101.00;;;6.33;;
3700;SDS011;1866;48.374;10.766;2022-07-17T02:25:22;100.67;;;6.13;;
3700;SDS011;1866;48.374;10.766;2022-07-17T02:27:49;103.70;;;6.40;;
3700;SDS011;1866;48.374;10.766;2022-07-17T02:30:16;100.77;;;6.30;;
3700;SDS011;1866;48.374;10.766;2022-07-17T02:32:46;101.70;;;7.10;;
3700;SDS011;1866;48.374;10.766;2022-07-17T02:35:13;101.90;;;6.90;;
3700;SDS011;1866;48.374;10.766;2022-07-17T02:37:40;101.87;;;6.93;;
3700;SDS011;1866;48.374;10.766;2022-07-17T02:42:59;103.57;;;6.63;;
3700;SDS011;1866;48.374;10.766;2022-07-17T02:45:26;106.47;;;7.80;;
3700;SDS011;1866;48.374;10.766;2022-07-17T02:47:54;102.70;;;6.50;;
3700;SDS011;1866;48.374;10.766;2022-07-17T02:50:22;114.93;;;7.13;;
3700;SDS011;1866;48.374;10.766;2022-07-17T02:52:50;103.70;;;7.03;;
3700;SDS011;1866;48.374;10.766;2022-07-17T02:55:18;100.97;;;6.30;;
3700;SDS011;1866;48.374;10.766;2022-07-17T02:57:46;100.37;;;5.97;;
3700;SDS011;1866;48.374;10.766;2022-07-17T03:00:14;100.90;;;6.30;;
3700;SDS011;1866;48.374;10.766;2022-07-17T03:02:48;100.50;;;6.13;;
3700;SDS011;1866;48.374;10.766;2022-07-17T03:05:16;104.77;;;7.30;;
3700;SDS011;1866;48.374;10.766;2022-07-17T03:07:44;102.37;;;6.97;;
3700;SDS011;1866;48.374;10.766;2022-07-17T03:13:21;104.53;;;6.40;;
3700;SDS011;1866;48.374;10.766;2022-07-17T03:15:52;101.47;;;6.60;;
3700;SDS011;1866;48.374;10.766;2022-07-17T03:18:21;104.67;;;7.40;;
3700;SDS011;1866;48.374;10.766;2022-07-17T03:20:49;115.93;;;7.30;;
3700;SDS011;1866;48.374;10.766;2022-07-17T03:23:18;102.60;;;7.07;;
3700;SDS011;1866;48.374;10.766;2022-07-17T03:25:46;102.57;;;7.17;;
3700;SDS011;1866;48.374;10.766;2022-07-17T03:28:15;101.27;;;6.70;;
3700;SDS011;1866;48.374;10.766;2022-07-17T03:30:42;103.10;;;7.00;;
3700;SDS011;1866;48.374;10.766;2022-07-17T03:33:09;100.77;;;6.17;;
3700;SDS011;1866;48.374;10.766;2022-07-17T03:35:36;101.30;;;6.40;;
3700;SDS011;1866;48.374;10.766;2022-07-17T03:38:04;101.70;;;7.10;;
3700;SDS011;1866;48.374;10.766;2022-07-17T03:40:57;102.13;;;6.77;;
3700;SDS011;1866;48.374;10.766;2022-07-17T03:43:28;100.87;;;6.30;;
3700;SDS011;1866;48.374;10.766;2022-07-17T03:45:54;102.73;;;6.90;;
3700;SDS011;1866;48.374;10.766;2022-07-17T03:48:21;101.30;;;6.40;;
3700;SDS011;1866;48.374;10.766;2022-07-17T03:50:48;101.27;;;6.53;;
3700;SDS011;1866;48.374;10.766;2022-07-17T03:53:16;106.10;;;6.60;;
3700;SDS011;1866;48.374;10.766;2022-07-17T03:55:43;102.87;;;7.00;;
3700;SDS011;1866;48.374;10.766;2022-07-17T03:58:10;101.90;;;6.50;;
3700;SDS011;1866;48.374;10.766;2022-07-17T04:00:37;101.37;;;6.47;;
3700;SDS011;1866;48.374;10.766;2022-07-17T04:03:04;103.13;;;6.53;;
3700;SDS011;1866;48.374;10.766;2022-07-17T04:05:31;101.07;;;6.30;;
3700;SDS011;1866;48.374;10.766;2022-07-17T04:07:58;103.00;;;6.43;;
3700;SDS011;1866;48.374;10.766;2022-07-17T04:10:26;101.23;;;6.47;;
3700;SDS011;1866;48.374;10.766;2022-07-17T04:12:54;103.20;;;7.20;;
3700;SDS011;1866;48.374;10.766;2022-07-17T04:15:21;105.60;;;7.00;;
3700;SDS011;1866;48.374;10.766;2022-07-17T04:18:02;102.40;;;6.80;;
3700;SDS011;1866;48.374;10.766;2022-07-17T04:20:29;104.80;;;6.20;;
3700;SDS011;1866;48.374;10.766;2022-07-17T04:22:56;105.90;;;6.73;;
3700;SDS011;1866;48.374;10.766;2022-07-17T04:25:24;101.13;;;6.07;;
3700;SDS011;1866;48.374;10.766;2022-07-17T04:27:52;103.27;;;6.20;;
3700;SDS011;1866;48.374;10.766;2022-07-17T04:30:19;102.60;;;5.47;;
3700;SDS011;1866;48.374;10.766;2022-07-17T04:32:47;100.33;;;5.40;;
3700;SDS011;1866;48.374;10.766;2022-07-17T04:35:13;98.73;;;4.77;;
3700;SDS011;1866;48.374;10.766;2022-07-17T04:37:42;99.80;;;5.33;;
3700;SDS011;1866;48.374;10.766;2022-07-17T04:40:10;99.00;;;5.80;;
3700;SDS011;1866;48.374;10.766;2022-07-17T04:42:39;98.70;;;5.17;;
3700;SDS011;1866;48.374;10.766;2022-07-17T04:45:06;114.43;;;5.60;;
3700;SDS011;1866;48.374;10.766;2022-07-17T04:47:35;95.90;;;4.40;;
3700;SDS011;1866;48.374;10.766;2022-07-17T04:50:03;99.30;;;5.00;;
3700;SDS011;1866;48.374;10.766;2022-07-17T04:52:30;102.67;;;5.33;;
3700;SDS011;1866;48.374;10.766;2022-07-17T04:55:00;96.60;;;4.77;;
3700;SDS011;1866;48.374;10.766;2022-07-17T04:57:30;97.73;;;5.33;;
3700;SDS011;1866;48.374;10.766;2022-07-17T04:59:58;98.70;;;5.20;;
3700;SDS011;1866;48.374;10.766;2022-07-17T05:02:32;97.67;;;5.37;;
3700;SDS011;1866;48.374;10.766;2022-07-17T05:05:00;97.90;;;5.27;;
3700;SDS011;1866;48.374;10.766;2022-07-17T05:07:30;96.73;;;5.20;;
3700;SDS011;1866;48.374;10.766;2022-07-17T05:10:04;97.37;;;5.70;;
3700;SDS011;1866;48.374;10.766;2022-07-17T05:12:35;98.33;;;5.40;;
3700;SDS011;1866;48.374;10.766;2022-07-17T05:17:49;97.60;;;5.50;;
3700;SDS011;1866;48.374;10.766;2022-07-17T05:20:16;100.23;;;6.27;;
3700;SDS011;1866;48.374;10.766;2022-07-17T05:22:43;99.57;;;6.63;;
3700;SDS011;1866;48.374;10.766;2022-07-17T05:25:10;98.50;;;5.90;;
3700;SDS011;1866;48.374;10.766;2022-07-17T05:27:36;97.97;;;5.80;;
3700;SDS011;1866;48.374;10.766;2022-07-17T05:30:04;100.50;;;5.97;;
3700;SDS011;1866;48.374;10.766;2022-07-17T05:32:33;98.00;;;5.70;;
3700;SDS011;1866;48.374;10.766;2022-07-17T05:35:00;100.27;;;5.97;;
3700;SDS011;1866;48.374;10.766;2022-07-17T05:37:26;98.37;;;5.70;;
3700;SDS011;1866;48.374;10.766;2022-07-17T05:39:53;98.37;;;5.70;;
3700;SDS011;1866;48.374;10.766;2022-07-17T05:42:20;100.50;;;5.83;;
3700;SDS011;1866;48.374;10.766;2022-07-17T05:44:47;99.20;;;6.10;;
3700;SDS011;1866;48.374;10.766;2022-07-17T05:47:36;101.37;;;6.97;;
3700;SDS011;1866;48.374;10.766;2022-07-17T05:50:03;100.47;;;5.87;;
3700;SDS011;1866;48.374;10.766;2022-07-17T05:52:31;98.07;;;5.60;;
3700;SDS011;1866;48.374;10.766;2022-07-17T05:54:58;98.30;;;5.67;;
3700;SDS011;1866;48.374;10.766;2022-07-17T05:57:25;101.00;;;5.80;;
3700;SDS011;1866;48.374;10.766;2022-07-17T05:59:52;97.23;;;5.63;;
3700;SDS011;1866;48.374;10.766;2022-07-17T06:02:19;98.13;;;5.33;;
3700;SDS011;1866;48.374;10.766;2022-07-17T06:04:47;100.50;;;6.40;;
3700;SDS011;1866;48.374;10.766;2022-07-17T06:07:14;104.50;;;5.90;;
3700;SDS011;1866;48.374;10.766;2022-07-17T06:12:57;98.20;;;5.70;;
3700;SDS011;1866;48.374;10.766;2022-07-17T06:15:24;100.10;;;5.60;;
3700;SDS011;1866;48.374;10.766;2022-07-17T06:17:51;98.30;;;5.57;;
3700;SDS011;1866;48.374;10.766;2022-07-17T06:20:25;100.53;;;6.80;;
3700;SDS011;1866;48.374;10.766;2022-07-17T06:23:00;101.10;;;6.63;;
3700;SDS011;1866;48.374;10.766;2022-07-17T06:25:26;99.27;;;5.87;;
3700;SDS011;1866;48.374;10.766;2022-07-17T06:27:53;102.43;;;5.97;;
3700;SDS011;1866;48.374;10.766;2022-07-17T06:30:20;100.57;;;6.60;;
3700;SDS011;1866;48.374;10.766;2022-07-17T06:32:50;97.37;;;6.00;;
3700;SDS011;1866;48.374;10.766;2022-07-17T06:35:16;98.87;;;6.10;;
3700;SDS011;1866;48.374;10.766;2022-07-17T06:37:47;99.10;;;6.20;;
3700;SDS011;1866;48.374;10.766;2022-07-17T06:40:14;97.87;;;6.00;;
3700;SDS011;1866;48.374;10.766;2022-07-17T06:42:41;97.77;;;5.83;;
3700;SDS011;1866;48.374;10.766;2022-07-17T06:45:10;99.10;;;5.60;;
3700;SDS011;1866;48.374;10.766;2022-07-17T06:47:37;98.87;;;6.10;;
3700;SDS011;1866;48.374;10.766;2022-07-17T06:50:04;100.53;;;6.07;;
3700;SDS011;1866;48.374;10.766;2022-07-17T06:52:32;98.93;;;6.10;;
3700;SDS011;1866;48.374;10.766;2022-07-17T06:55:16;96.87;;;5.23;;
3700;SDS011;1866;48.374;10.766;2022-07-17T06:57:44;99.10;;;5.80;;
3700;SDS011;1866;48.374;10.766;2022-07-17T07:00:11;107.80;;;6.33;;
3700;SDS011;1866;48.374;10.766;2022-07-17T07:02:40;98.43;;;5.67;;
3700;SDS011;1866;48.374;10.766;2022-07-17T07:05:07;97.37;;;5.60;;
3700;SDS011;1866;48.374;10.766;2022-07-17T07:07:35;98.40;;;6.20;;
3700;SDS011;1866;48.374;10.766;2022-07-17T07:10:02;97.00;;;5.30;;
3700;SDS011;1866;48.374;10.766;2022-07-17T07:12:31;97.97;;;6.70;;
3700;SDS011;1866;48.374;10.766;2022-07-17T07:14:58;96.70;;;5.43;;
3700;SDS011;1866;48.374;10.766;2022-07-17T07:17:25;97.77;;;5.50;;
3700;SDS011;1866;48.374;10.766;2022-07-17T07:20:02;96.27;;;5.10;;
3700;SDS011;1866;48.374;10.766;2022-07-17T07:22:30;98.60;;;5.53;;
3700;SDS011;1866;48.374;10.766;2022-07-17T07:24:57;104.10;;;5.17;;
3700;SDS011;1866;48.374;10.766;2022-07-17T07:27:38;98.67;;;5.50;;
3700;SDS011;1866;48.374;10.766;2022-07-17T07:30:05;97.20;;;5.40;;
3700;SDS011;1866;48.374;10.766;2022-07-17T07:32:35;96.63;;;5.30;;
3700;SDS011;1866;48.374;10.766;2022-07-17T07:35:03;96.73;;;5.10;;
3700;SDS011;1866;48.374;10.766;2022-07-17T07:37:30;95.93;;;5.03;;
3700;SDS011;1866;48.374;10.766;2022-07-17T07:40:03;97.30;;;5.50;;
3700;SDS011;1866;48.374;10.766;2022-07-17T07:42:37;98.10;;;5.80;;
3700;SDS011;1866;48.374;10.766;2022-07-17T07:45:06;96.70;;;5.20;;
3700;SDS011;1866;48.374;10.766;2022-07-17T07:47:39;97.13;;;5.17;;
3700;SDS011;1866;48.374;10.766;2022-07-17T07:50:07;117.40;;;5.60;;
3700;SDS011;1866;48.374;10.766;2022-07-17T07:52:34;97.50;;;5.47;;
3700;SDS011;1866;48.374;10.766;2022-07-17T07:55:01;95.50;;;4.90;;
3700;SDS011;1866;48.374;10.766;2022-07-17T07:57:29;96.87;;;4.63;;
3700;SDS011;1866;48.374;10.766;2022-07-17T07:59:57;95.33;;;4.83;;
3700;SDS011;1866;48.374;10.766;2022-07-17T08:05:13;96.50;;;5.20;;
3700;SDS011;1866;48.374;10.766;2022-07-17T08:07:40;95.70;;;4.40;;
3700;SDS011;1866;48.374;10.766;2022-07-17T08:10:07;95.70;;;4.80;;
3700;SDS011;1866;48.374;10.766;2022-07-17T08:12:34;108.23;;;4.60;;
3700;SDS011;1866;48.374;10.766;2022-07-17T08:15:04;99.33;;;5.10;;
3700;SDS011;1866;48.374;10.766;2022-07-17T08:17:31;94.60;;;4.43;;
3700;SDS011;1866;48.374;10.766;2022-07-17T08:19:58;95.47;;;4.23;;
3700;SDS011;1866;48.374;10.766;2022-07-17T08:22:25;94.63;;;4.20;;
3700;SDS011;1866;48.374;10.766;2022-07-17T08:24:52;95.17;;;4.30;;
3700;SDS011;1866;48.374;10.766;2022-07-17T08:27:19;93.53;;;4.20;;
3700;SDS011;1866;48.374;10.766;2022-07-17T08:29:47;93.30;;;4.27;;
3700;SDS011;1866;48.374;10.766;2022-07-17T08:32:15;95.60;;;5.00;;
3700;SDS011;1866;48.374;10.766;2022-07-17T08:34:48;93.40;;;4.10;;
3700;SDS011;1866;48.374;10.766;2022-07-17T08:37:18;94.40;;;4.50;;
3700;SDS011;1866;48.374;10.766;2022-07-17T08:39:45;94.97;;;4.57;;
3700;SDS011;1866;48.374;10.766;2022-07-17T08:42:12;94.40;;;4.20;;
3700;SDS011;1866;48.374;10.766;2022-07-17T08:44:41;102.80;;;4.73;;
3700;SDS011;1866;48.374;10.766;2022-07-17T08:47:08;98.90;;;4.70;;
3700;SDS011;1866;48.374;10.766;2022-07-17T08:49:39;93.57;;;4.10;;
3700;SDS011;1866;48.374;10.766;2022-07-17T08:52:09;95.40;;;4.60;;
3700;SDS011;1866;48.374;10.766;2022-07-17T08:54:37;96.70;;;4.60;;
3700;SDS011;1866;48.374;10.766;2022-07-17T08:57:04;97.37;;;4.50;;
3700;SDS011;1866;48.374;10.766;2022-07-17T08:59:31;94.50;;;4.37;;
3700;SDS011;1866;48.374;10.766;2022-07-17T09:01:58;93.77;;;4.53;;
3700;SDS011;1866;48.374;10.766;2022-07-17T09:04:26;94.87;;;4.23;;
3700;SDS011;1866;48.374;10.766;2022-07-17T09:07:01;93.33;;;4.20;;
3700;SDS011;1866;48.374;10.766;2022-07-17T09:09:30;92.40;;;3.90;;
3700;SDS011;1866;48.374;10.766;2022-07-17T09:11:59;95.63;;;4.10;;
3700;SDS011;1866;48.374;10.766;2022-07-17T09:14:37;91.90;;;3.73;;
3700;SDS011;1866;48.374;10.766;2022-07-17T09:17:07;93.97;;;4.13;;
3700;SDS011;1866;48.374;10.766;2022-07-17T09:19:36;93.67;;;4.37;;
3700;SDS011;1866;48.374;10.766;2022-07-17T09:22:08;92.87;;;4.00;;
3700;SDS011;1866;48.374;10.766;2022-07-17T09:24:38;94.00;;;3.67;;
3700;SDS011;1866;48.374;10.766;2022-07-17T09:27:07;91.57;;;3.83;;
3700;SDS011;1866;48.374;10.766;2022-07-17T09:29:34;96.67;;;4.40;;
3700;SDS011;1866;48.374;10.766;2022-07-17T09:32:01;95.10;;;3.60;;
3700;SDS011;1866;48.374;10.766;2022-07-17T09:34:28;100.20;;;4.27;;
3700;SDS011;1866;48.374;10.766;2022-07-17T09:36:59;95.77;;;4.60;;
3700;SDS011;1866;48.374;10.766;2022-07-17T09:39:35;100.43;;;4.83;;
3700;SDS011;1866;48.374;10.766;2022-07-17T09:42:02;94.57;;;4.20;;
3700;SDS011;1866;48.374;10.766;2022-07-17T09:44:29;92.97;;;3.70;;
3700;SDS011;1866;48.374;10.766;2022-07-17T09:46:56;92.50;;;4.10;;
3700;SDS011;1866;48.374;10.766;2022-07-17T09:49:23;94.50;;;4.57;;
3700;SDS011;1866;48.374;10.766;2022-07-17T09:51:53;94.07;;;3.70;;
3700;SDS011;1866;48.374;10.766;2022-07-17T09:54:21;92.17;;;3.83;;
3700;SDS011;1866;48.374;10.766;2022-07-17T09:56:50;91.90;;;3.60;;
3700;SDS011;1866;48.374;10.766;2022-07-17T09:59:18;92.57;;;3.70;;
3700;SDS011;1866;48.374;10.766;2022-07-17T10:01:45;93.67;;;3.80;;
3700;SDS011;1866;48.374;10.766;2022-07-17T10:04:14;94.13;;;4.10;;
3700;SDS011;1866;48.374;10.766;2022-07-17T10:06:42;92.30;;;3.70;;
3700;SDS011;1866;48.374;10.766;2022-07-17T10:09:11;91.97;;;3.40;;
3700;SDS011;1866;48.374;10.766;2022-07-17T10:11:39;96.03;;;4.30;;
3700;SDS011;1866;48.374;10.766;2022-07-17T10:14:15;92.67;;;4.00;;
3700;SDS011;1866;48.374;10.766;2022-07-17T10:16:43;93.07;;;3.97;;
3700;SDS011;1866;48.374;10.766;2022-07-17T10:19:14;92.17;;;3.80;;
3700;SDS011;1866;48.374;10.766;2022-07-17T10:21:52;92.30;;;3.73;;
3700;SDS011;1866;48.374;10.766;2022-07-17T10:24:21;93.40;;;4.27;;
3700;SDS011;1866;48.374;10.766;2022-07-17T10:26:53;94.57;;;3.60;;
3700;SDS011;1866;48.374;10.766;2022-07-17T10:29:29;92.00;;;3.63;;
3700;SDS011;1866;48.374;10.766;2022-07-17T10:32:00;93.50;;;3.50;;
3700;SDS011;1866;48.374;10.766;2022-07-17T10:34:41;92.00;;;3.60;;
3700;SDS011;1866;48.374;10.766;2022-07-17T10:37:16;93.33;;;3.60;;
3700;SDS011;1866;48.374;10.766;2022-07-17T10:39:56;92.60;;;3.80;;
3700;SDS011;1866;48.374;10.766;2022-07-17T10:42:40;94.77;;;3.70;;
3700;SDS011;1866;48.374;10.766;2022-07-17T10:45:20;92.50;;;4.00;;
3700;SDS011;1866;48.374;10.766;2022-07-17T10:47:52;95.03;;;3.37;;
3700;SDS011;1866;48.374;10.766;2022-07-17T10:50:23;91.73;;;3.33;;
3700;SDS011;1866;48.374;10.766;2022-07-17T10:53:02;92.43;;;3.50;;
3700;SDS011;1866;48.374;10.766;2022-07-17T10:55:35;90.57;;;3.50;;
3700;SDS011;1866;48.374;10.766;2022-07-17T10:58:03;90.90;;;3.57;;
3700;SDS011;1866;48.374;10.766;2022-07-17T11:00:40;91.90;;;3.47;;
3700;SDS011;1866;48.374;10.766;2022-07-17T11:03:09;96.07;;;3.60;;
3700;SDS011;1866;48.374;10.766;2022-07-17T11:05:36;93.20;;;3.60;;
3700;SDS011;1866;48.374;10.766;2022-07-17T11:08:04;92.20;;;3.60;;
3700;SDS011;1866;48.374;10.766;2022-07-17T11:10:34;91.40;;;3.20;;
3700;SDS011;1866;48.374;10.766;2022-07-17T11:13:10;91.77;;;3.60;;
3700;SDS011;1866;48.374;10.766;2022-07-17T11:15:38;91.37;;;3.50;;
3700;SDS011;1866;48.374;10.766;2022-07-17T11:18:14;89.40;;;3.20;;
3700;SDS011;1866;48.374;10.766;2022-07-17T11:20:49;90.67;;;3.80;;
3700;SDS011;1866;48.374;10.766;2022-07-17T11:23:17;89.73;;;3.70;;
3700;SDS011;1866;48.374;10.766;2022-07-17T11:25:52;91.30;;;3.50;;
3700;SDS011;1866;48.374;10.766;2022-07-17T11:28:33;92.13;;;3.70;;
3700;SDS011;1866;48.374;10.766;2022-07-17T11:31:04;90.77;;;3.30;;
3700;SDS011;1866;48.374;10.766;2022-07-17T11:33:52;92.47;;;3.90;;
3700;SDS011;1866;48.374;10.766;2022-07-17T11:36:24;93.07;;;3.43;;
3700;SDS011;1866;48.374;10.766;2022-07-17T11:38:53;90.97;;;3.43;;
3700;SDS011;1866;48.374;10.766;2022-07-17T11:41:29;91.07;;;3.40;;
3700;SDS011;1866;48.374;10.766;2022-07-17T11:43:57;92.27;;;3.90;;
3700;SDS011;1866;48.374;10.766;2022-07-17T11:46:26;96.10;;;3.80;;
3700;SDS011;1866;48.374;10.766;2022-07-17T11:48:54;91.20;;;4.00;;
3700;SDS011;1866;48.374;10.766;2022-07-17T11:51:21;91.47;;;4.03;;
3700;SDS011;1866;48.374;10.766;2022-07-17T11:54:02;89.87;;;3.30;;
3700;SDS011;1866;48.374;10.766;2022-07-17T11:56:30;90.87;;;3.67;;
3700;SDS011;1866;48.374;10.766;2022-07-17T11:58:57;91.97;;;4.03;;
3700;SDS011;1866;48.374;10.766;2022-07-17T12:01:24;91.20;;;3.80;;
3700;SDS011;1866;48.374;10.766;2022-07-17T12:04:03;90.80;;;3.80;;
3700;SDS011;1866;48.374;10.766;2022-07-17T12:06:31;90.70;;;3.67;;
3700;SDS011;1866;48.374;10.766;2022-07-17T12:08:58;93.07;;;3.70;;
3700;SDS011;1866;48.374;10.766;2022-07-17T12:11:25;90.13;;;3.50;;
3700;SDS011;1866;48.374;10.766;2022-07-17T12:13:52;92.10;;;3.93;;
3700;SDS011;1866;48.374;10.766;2022-07-17T12:16:24;90.57;;;3.53;;
3700;SDS011;1866;48.374;10.766;2022-07-17T12:19:02;90.47;;;3.63;;
3700;SDS011;1866;48.374;10.766;2022-07-17T12:21:34;92.10;;;3.73;;
3700;SDS011;1866;48.374;10.766;2022-07-17T12:24:27;92.00;;;4.70;;
3700;SDS011;1866;48.374;10.766;2022-07-17T12:26:56;90.87;;;3.60;;
3700;SDS011;1866;48.374;10.766;2022-07-17T12:29:26;91.57;;;3.50;;
3700;SDS011;1866;48.374;10.766;2022-07-17T12:32:00;90.47;;;3.40;;
3700;SDS011;1866;48.374;10.766;2022-07-17T12:34:33;90.17;;;3.30;;
3700;SDS011;1866;48.374;10.766;2022-07-17T12:37:00;90.50;;;3.93;;
3700;SDS011;1866;48.374;10.766;2022-07-17T12:39:27;90.70;;;3.90;;
3700;SDS011;1866;48.374;10.766;2022-07-17T12:41:54;90.67;;;3.87;;
3700;SDS011;1866;48.374;10.766;2022-07-17T12:44:21;91.20;;;3.80;;
3700;SDS011;1866;48.374;10.766;2022-07-17T12:46:48;91.07;;;3.70;;
3700;SDS011;1866;48.374;10.766;2022-07-17T12:49:15;93.00;;;4.33;;
3700;SDS011;1866;48.374;10.766;2022-07-17T12:51:44;93.60;;;3.73;;
3700;SDS011;1866;48.374;10.766;2022-07-17T12:54:12;93.10;;;3.73;;
3700;SDS011;1866;48.374;10.766;2022-07-17T12:56:38;90.17;;;3.70;;
3700;SDS011;1866;48.374;10.766;2022-07-17T12:59:05;92.47;;;3.70;;
3700;SDS011;1866;48.374;10.766;2022-07-17T13:01:33;90.67;;;3.60;;
3700;SDS011;1866;48.374;10.766;2022-07-17T13:04:01;90.77;;;3.80;;
3700;SDS011;1866;48.374;10.766;2022-07-17T13:06:28;94.47;;;4.00;;
3700;SDS011;1866;48.374;10.766;2022-07-17T13:08:56;90.00;;;3.43;;
3700;SDS011;1866;48.374;10.766;2022-07-17T13:11:23;90.47;;;3.70;;
3700;SDS011;1866;48.374;10.766;2022-07-17T13:13:52;94.20;;;3.90;;
3700;SDS011;1866;48.374;10.766;2022-07-17T13:16:19;91.00;;;3.90;;
3700;SDS011;1866;48.374;10.766;2022-07-17T13:18:46;91.60;;;5.27;;
3700;SDS011;1866;48.374;10.766;2022-07-17T13:21:19;90.73;;;3.60;;
3700;SDS011;1866;48.374;10.766;2022-07-17T13:26:44;91.97;;;4.10;;
3700;SDS011;1866;48.374;10.766;2022-07-17T13:29:12;91.17;;;4.10;;
3700;SDS011;1866;48.374;10.766;2022-07-17T13:31:39;95.37;;;4.30;;
3700;SDS011;1866;48.374;10.766;2022-07-17T13:34:12;101.30;;;4.83;;
3700;SDS011;1866;48.374;10.766;2022-07-17T13:36:42;92.10;;;4.20;;
3700;SDS011;1866;48.374;10.766;2022-07-17T13:39:09;97.30;;;4.30;;
3700;SDS011;1866;48.374;10.766;2022-07-17T13:41:41;92.07;;;4.57;;
3700;SDS011;1866;48.374;10.766;2022-07-17T13:44:09;93.17;;;4.47;;
3700;SDS011;1866;48.374;10.766;2022-07-17T13:46:36;91.30;;;4.10;;
3700;SDS011;1866;48.374;10.766;2022-07-17T13:49:03;90.77;;;4.40;;
3700;SDS011;1866;48.374;10.766;2022-07-17T13:51:31;93.50;;;4.50;;
3700;SDS011;1866;48.374;10.766;2022-07-17T13:57:07;91.27;;;3.90;;
3700;SDS011;1866;48.374;10.766;2022-07-17T13:59:34;94.17;;;4.87;;
3700;SDS011;1866;48.374;10.766;2022-07-17T14:02:04;91.27;;;4.10;;
3700;SDS011;1866;48.374;10.766;2022-07-17T14:04:32;90.57;;;4.10;;
3700;SDS011;1866;48.374;10.766;2022-07-17T14:06:59;90.47;;;3.63;;
3700;SDS011;1866;48.374;10.766;2022-07-17T14:09:26;92.00;;;4.40;;
3700;SDS011;1866;48.374;10.766;2022-07-17T14:11:54;91.17;;;4.43;;
3700;SDS011;1866;48.374;10.766;2022-07-17T14:14:22;90.50;;;3.77;;
3700;SDS011;1866;48.374;10.766;2022-07-17T14:16:49;101.13;;;3.40;;
3700;SDS011;1866;48.374;10.766;2022-07-17T14:19:18;92.70;;;4.10;;
3700;SDS011;1866;48.374;10.766;2022-07-17T14:21:46;91.60;;;4.03;;
3700;SDS011;1866;48.374;10.766;2022-07-17T14:24:12;90.07;;;3.67;;
3700;SDS011;1866;48.374;10.766;2022-07-17T14:26:39;89.97;;;3.63;;
3700;SDS011;1866;48.374;10.766;2022-07-17T14:29:09;92.80;;;4.60;;
3700;SDS011;1866;48.374;10.766;2022-07-17T14:31:37;89.87;;;3.60;;
3700;SDS011;1866;48.374;10.766;2022-07-17T14:34:07;90.17;;;3.50;;
3700;SDS011;1866;48.374;10.766;2022-07-17T14:36:35;90.80;;;4.10;;
3700;SDS011;1866;48.374;10.766;2022-07-17T14:39:02;91.93;;;4.57;;
3700;SDS011;1866;48.374;10.766;2022-07-17T14:41:31;90.53;;;3.77;;
3700;SDS011;1866;48.374;10.766;2022-07-17T14:44:02;89.67;;;3.30;;
3700;SDS011;1866;48.374;10.766;2022-07-17T14:46:32;89.90;;;3.40;;
3700;SDS011;1866;48.374;10.766;2022-07-17T14:49:02;89.70;;;3.70;;
3700;SDS011;1866;48.374;10.766;2022-07-17T14:51:30;89.90;;;3.47;;
3700;SDS011;1866;48.374;10.766;2022-07-17T14:54:00;89.30;;;3.40;;
3700;SDS011;1866;48.374;10.766;2022-07-17T14:56:27;89.60;;;3.40;;
3700;SDS011;1866;48.374;10.766;2022-07-17T14:59:33;89.70;;;3.40;;
3700;SDS011;1866;48.374;10.766;2022-07-17T15:02:01;90.70;;;3.50;;
3700;SDS011;1866;48.374;10.766;2022-07-17T15:04:30;90.93;;;3.43;;
3700;SDS011;1866;48.374;10.766;2022-07-17T15:06:57;89.97;;;3.43;;
3700;SDS011;1866;48.374;10.766;2022-07-17T15:09:24;90.10;;;3.60;;
3700;SDS011;1866;48.374;10.766;2022-07-17T15:11:51;91.93;;;3.60;;
3700;SDS011;1866;48.374;10.766;2022-07-17T15:14:17;89.47;;;3.33;;
3700;SDS011;1866;48.374;10.766;2022-07-17T15:16:44;89.60;;;3.40;;
3700;SDS011;1866;48.374;10.766;2022-07-17T15:19:11;90.37;;;3.70;;
3700;SDS011;1866;48.374;10.766;2022-07-17T15:21:40;90.07;;;3.30;;